Time;durP1;ratioP1;P1;durP2;ratioP2;P2;SDS_P1;SDS_P2;PMS_P1;PMS_P2;Temp;Humidity;BMP_temperature;BMP_pressure;BME280_temperature;BME280_humidity;BME280_pressure;Samples;Min_cycle;Max_cycle;Signal;HPM_P1;HPM_P2
2023/10/15 00:00:12;;;;;;;1.42;1.33;;;19.20;55.50;;;;;;5053072;28;20671;-77
2023/10/15 00:02:41;;;;;;;2.80;1.42;;;19.30;55.60;;;;;;5053828;28;20199;-77
2023/10/15 00:05:10;;;;;;;2.28;1.63;;;19.30;55.10;;;;;;5052930;28;20199;-77
2023/10/15 00:07:37;;;;;;;1.50;1.40;;;19.20;55.70;;;;;;5052450;28;20196;-77
2023/10/15 00:10:13;;;;;;;1.45;1.35;;;19.20;55.50;;;;;;5052343;28;20238;-77
2023/10/15 00:12:40;;;;;;;2.58;1.40;;;19.20;55.40;;;;;;5052508;28;20191;-76
2023/10/15 00:15:13;;;;;;;1.50;1.40;;;19.20;55.60;;;;;;5052251;28;20211;-76
2023/10/15 00:17:40;;;;;;;1.73;1.40;;;19.20;55.60;;;;;;5052469;28;20196;-76
2023/10/15 00:20:14;;;;;;;2.25;1.30;;;19.20;55.30;;;;;;5052815;28;20241;-76
2023/10/15 00:22:42;;;;;;;2.05;1.33;;;19.20;55.30;;;;;;5053328;28;20195;-76
2023/10/15 00:25:12;;;;;;;1.42;1.30;;;19.10;55.40;;;;;;5052336;28;20728;-76
2023/10/15 00:27:40;;;;;;;2.10;1.17;;;19.10;55.10;;;;;;5052235;28;20676;-76
2023/10/15 00:30:12;;;;;;;2.15;1.20;;;19.10;55.40;;;;;;5052321;28;20222;-76
2023/10/15 00:32:43;;;;;;;2.00;1.23;;;19.10;55.10;;;;;;5053173;28;20271;-76
2023/10/15 00:35:12;;;;;;;1.60;1.30;;;19.10;55.40;;;;;;5074401;28;20206;-76
2023/10/15 00:37:46;;;;;;;2.05;1.40;;;19.10;55.30;;;;;;5078315;28;20172;-77
2023/10/15 00:40:17;;;;;;;1.73;1.30;;;19.10;54.90;;;;;;5053194;28;20225;-77
2023/10/15 00:42:45;;;;;;;2.33;1.30;;;19.10;55.10;;;;;;5038301;28;20223;-77
2023/10/15 00:45:14;;;;;;;1.58;1.20;;;19.10;55.30;;;;;;5056334;28;20206;-77
2023/10/15 00:47:42;;;;;;;1.73;1.20;;;19.10;55.10;;;;;;5056029;28;20202;-77
2023/10/15 00:50:10;;;;;;;2.05;1.30;;;19.10;55.10;;;;;;5056132;28;20215;-77
2023/10/15 00:52:42;;;;;;;1.83;1.55;;;19.10;55.30;;;;;;5056262;28;20269;-77
2023/10/15 00:55:16;;;;;;;1.98;1.30;;;19.10;55.10;;;;;;5057284;28;20298;-77
2023/10/15 00:57:46;;;;;;;1.73;1.30;;;19.10;55.10;;;;;;5055817;28;20633;-77
2023/10/15 01:02:57;;;;;;;1.52;1.30;;;19.10;55.30;;;;;;5041435;28;20203;-77
2023/10/15 01:05:25;;;;;;;2.92;1.38;;;19.10;54.80;;;;;;5055681;28;20195;-77
2023/10/15 01:07:54;;;;;;;1.75;1.20;;;19.10;55.00;;;;;;5055947;28;20202;-77
2023/10/15 01:10:29;;;;;;;1.25;1.15;;;19.00;54.80;;;;;;5055538;28;20222;-77
2023/10/15 01:12:58;;;;;;;1.98;1.33;;;19.10;55.00;;;;;;5055443;28;20191;-77
2023/10/15 01:15:27;;;;;;;1.92;1.20;;;19.10;55.20;;;;;;5055784;28;20223;-77
2023/10/15 01:18:00;;;;;;;1.17;1.02;;;19.10;55.40;;;;;;5055824;28;20282;-77
2023/10/15 01:20:30;;;;;;;2.13;1.20;;;19.10;55.50;;;;;;5055400;28;20265;-77
2023/10/15 01:22:57;;;;;;;1.75;1.10;;;19.00;55.50;;;;;;5039227;28;20195;-77
2023/10/15 01:25:25;;;;;;;1.15;1.02;;;19.00;55.20;;;;;;5055623;28;20195;-77
2023/10/15 01:27:55;;;;;;;1.63;1.10;;;19.00;55.30;;;;;;5055487;28;20715;-77
2023/10/15 01:30:24;;;;;;;1.75;1.27;;;19.00;55.50;;;;;;5055704;28;20302;-77
2023/10/15 01:32:51;;;;;;;2.28;1.20;;;19.00;55.40;;;;;;5055730;28;20203;-77
2023/10/15 01:35:19;;;;;;;1.60;1.13;;;19.00;55.30;;;;;;5055023;28;20219;-77
2023/10/15 01:37:58;;;;;;;1.45;1.35;;;19.00;55.30;;;;;;5055285;28;20199;-77
2023/10/15 01:40:37;;;;;;;1.25;1.00;;;19.00;55.50;;;;;;5055209;28;20243;-77
2023/10/15 01:43:06;;;;;;;1.05;1.02;;;19.00;55.40;;;;;;5055092;28;20205;-77
2023/10/15 01:45:38;;;;;;;1.10;1.00;;;19.00;55.60;;;;;;5055720;28;20668;-77
2023/10/15 01:48:13;;;;;;;2.67;1.20;;;19.00;55.40;;;;;;5055534;28;20180;-77
2023/10/15 01:50:44;;;;;;;2.03;1.20;;;19.00;55.40;;;;;;5054663;28;20219;-77
2023/10/15 01:53:12;;;;;;;1.42;1.33;;;19.00;55.30;;;;;;5055123;28;20202;-77
2023/10/15 01:55:52;;;;;;;2.20;1.33;;;19.00;55.60;;;;;;5054603;28;20227;-77
2023/10/15 01:58:24;;;;;;;1.45;1.35;;;19.00;55.60;;;;;;5054615;28;20194;-77
2023/10/15 02:00:52;;;;;;;1.90;1.30;;;19.00;55.10;;;;;;5054541;28;20243;-76
2023/10/15 02:03:20;;;;;;;1.98;1.30;;;19.00;55.50;;;;;;5054565;28;20227;-76
2023/10/15 02:05:47;;;;;;;1.60;1.20;;;19.00;55.50;;;;;;5038463;28;20192;-76
2023/10/15 02:08:16;;;;;;;1.85;1.08;;;19.00;55.20;;;;;;5054428;28;20195;-76
2023/10/15 02:10:47;;;;;;;2.17;1.20;;;19.00;55.40;;;;;;5054459;28;20683;-76
2023/10/15 02:13:15;;;;;;;1.40;1.30;;;19.10;55.40;;;;;;5055255;28;20200;-76
2023/10/15 02:15:43;;;;;;;2.13;1.35;;;19.00;55.40;;;;;;5054497;28;20218;-76
2023/10/15 02:18:14;;;;;;;1.58;1.20;;;19.00;55.50;;;;;;5054398;28;20673;-76
2023/10/15 02:20:46;;;;;;;1.40;1.30;;;19.00;55.50;;;;;;5054254;28;20698;-76
2023/10/15 02:23:15;;;;;;;2.08;1.38;;;19.00;55.30;;;;;;5054185;28;20669;-76
2023/10/15 02:25:46;;;;;;;1.88;1.00;;;19.00;55.40;;;;;;5054677;28;20191;-76
2023/10/15 02:28:20;;;;;;;1.58;1.20;;;19.00;55.10;;;;;;5054216;28;20282;-76
2023/10/15 02:30:47;;;;;;;1.38;1.27;;;19.00;55.10;;;;;;5055765;28;20282;-76
2023/10/15 02:33:16;;;;;;;1.15;1.05;;;19.00;55.50;;;;;;5054064;28;20199;-76
2023/10/15 02:35:46;;;;;;;2.25;1.17;;;19.00;55.70;;;;;;5054011;28;20302;-76
2023/10/15 02:38:16;;;;;;;1.58;1.15;;;19.00;55.50;;;;;;5061507;28;20610;-76
2023/10/15 02:41:03;;;;;;;1.98;1.33;;;19.00;55.40;;;;;;5055956;28;20227;-76
2023/10/15 02:43:32;;;;;;;1.38;1.15;;;19.00;55.70;;;;;;5054533;28;20257;-76
2023/10/15 02:46:00;;;;;;;1.25;1.00;;;19.00;55.40;;;;;;5053659;28;20191;-76
2023/10/15 02:48:31;;;;;;;1.05;1.02;;;19.00;55.30;;;;;;5055277;28;20273;-76
2023/10/15 02:51:07;;;;;;;1.33;1.23;;;19.00;55.70;;;;;;5053887;28;20229;-76
2023/10/15 02:53:36;;;;;;;2.33;1.23;;;19.00;55.50;;;;;;5053720;28;20195;-76
2023/10/15 02:56:10;;;;;;;1.20;1.10;;;19.00;55.60;;;;;;5054656;28;20249;-76
2023/10/15 02:58:38;;;;;;;1.67;1.20;;;19.00;55.70;;;;;;5053914;28;20191;-78
2023/10/15 03:01:17;;;;;;;1.25;0.95;;;19.00;55.60;;;;;;5053498;28;20694;-78
2023/10/15 03:03:49;;;;;;;2.03;1.20;;;19.00;56.20;;;;;;5053702;28;20265;-78
2023/10/15 03:06:19;;;;;;;2.58;1.02;;;19.00;55.60;;;;;;5053187;28;20653;-78
2023/10/15 03:08:47;;;;;;;2.38;1.23;;;19.00;55.50;;;;;;5054596;28;20208;-78
2023/10/15 03:11:14;;;;;;;1.27;1.00;;;19.00;55.50;;;;;;5053672;28;20223;-77
2023/10/15 03:13:53;;;;;;;1.20;1.10;;;19.00;55.50;;;;;;5053724;28;20195;-78
2023/10/15 03:16:21;;;;;;;1.25;1.05;;;19.00;56.30;;;;;;5054752;28;20298;-78
2023/10/15 03:18:49;;;;;;;1.25;1.15;;;19.00;55.80;;;;;;5059352;28;20206;-78
2023/10/15 03:21:20;;;;;;;1.58;1.00;;;19.00;55.90;;;;;;5053835;28;20223;-78
2023/10/15 03:23:49;;;;;;;1.75;1.10;;;19.00;56.10;;;;;;5053160;28;20668;-78
2023/10/15 03:26:21;;;;;;;1.98;1.10;;;19.00;56.30;;;;;;5053305;28;20286;-77
2023/10/15 03:28:51;;;;;;;1.83;1.10;;;19.00;56.20;;;;;;5053188;28;20286;-77
2023/10/15 03:31:23;;;;;;;2.03;1.30;;;19.10;56.30;;;;;;5053237;28;20313;-77
2023/10/15 03:34:16;;;;;;;1.02;0.93;;;19.10;56.40;;;;;;5053204;28;20631;-77
2023/10/15 03:36:51;;;;;;;1.10;1.10;;;19.20;56.10;;;;;;5040107;28;20217;-77
2023/10/15 03:39:24;;;;;;;1.00;0.90;;;19.30;56.10;;;;;;5052818;28;20222;-77
2023/10/15 03:41:54;;;;;;;1.58;1.10;;;19.30;56.10;;;;;;5052782;28;20630;-77
2023/10/15 03:44:31;;;;;;;1.38;1.05;;;19.30;55.80;;;;;;5052919;28;20204;-77
2023/10/15 03:47:04;;;;;;;2.55;1.23;;;19.30;55.80;;;;;;5053784;28;20206;-77
2023/10/15 03:49:31;;;;;;;1.40;1.30;;;19.40;56.00;;;;;;5052959;28;20732;-77
2023/10/15 03:51:58;;;;;;;1.55;1.13;;;19.40;55.60;;;;;;5052747;28;20218;-77
2023/10/15 03:54:26;;;;;;;1.63;1.10;;;19.50;55.60;;;;;;5052871;28;20565;-77
2023/10/15 03:56:53;;;;;;;1.80;1.13;;;19.50;55.70;;;;;;5053390;28;20578;-77
2023/10/15 03:59:20;;;;;;;1.98;1.13;;;19.50;55.40;;;;;;5052460;28;20218;-77
2023/10/15 04:01:49;;;;;;;1.20;1.10;;;19.50;55.30;;;;;;5052573;28;20195;-77
2023/10/15 04:06:51;;;;;;;1.67;1.30;;;19.60;55.40;;;;;;5033424;28;20215;-55
2023/10/15 04:09:22;;;;;;;1.00;0.90;;;19.60;55.20;;;;;;5053290;28;20525;-55
2023/10/15 04:11:50;;;;;;;1.17;1.08;;;19.60;55.10;;;;;;5053134;28;20553;-55
2023/10/15 04:14:28;;;;;;;1.10;1.00;;;19.60;55.10;;;;;;5052899;28;20184;-55
2023/10/15 04:16:58;;;;;;;2.15;1.10;;;19.60;55.00;;;;;;5054225;28;20217;-55
2023/10/15 04:19:27;;;;;;;1.58;1.10;;;19.60;54.80;;;;;;5057247;28;20270;-55
2023/10/15 04:21:59;;;;;;;1.20;1.10;;;19.60;54.60;;;;;;5057042;28;20218;-55
2023/10/15 04:24:36;;;;;;;2.63;1.20;;;19.60;54.50;;;;;;5057307;28;20629;-55
2023/10/15 04:27:06;;;;;;;2.05;1.27;;;19.60;54.50;;;;;;5039047;28;20611;-55
2023/10/15 04:29:35;;;;;;;2.15;1.23;;;19.60;54.60;;;;;;5039928;28;20561;-55
2023/10/15 04:32:09;;;;;;;1.17;1.08;;;19.60;54.50;;;;;;5039009;28;20657;-55
2023/10/15 04:34:36;;;;;;;1.10;1.00;;;19.60;54.40;;;;;;5056940;28;20642;-55
2023/10/15 04:37:07;;;;;;;1.60;1.25;;;19.60;54.30;;;;;;5038648;28;20221;-55
2023/10/15 04:39:36;;;;;;;1.65;1.10;;;19.60;54.60;;;;;;5038863;28;20194;-55
2023/10/15 04:42:08;;;;;;;1.30;1.20;;;19.60;54.50;;;;;;5056687;28;20192;-55
2023/10/15 04:44:35;;;;;;;1.10;1.00;;;19.60;54.60;;;;;;5038788;28;20202;-55
2023/10/15 04:47:08;;;;;;;1.80;1.27;;;19.60;54.60;;;;;;5038639;28;20219;-55
2023/10/15 04:49:35;;;;;;;2.67;1.20;;;19.60;54.80;;;;;;5038697;28;20297;-55
2023/10/15 04:52:13;;;;;;;1.42;1.10;;;19.50;54.80;;;;;;5038633;28;20191;-55
2023/10/15 04:54:40;;;;;;;1.02;0.98;;;19.60;54.80;;;;;;5038636;28;20222;-55
2023/10/15 04:57:08;;;;;;;1.10;1.00;;;19.50;54.70;;;;;;5038469;28;20219;-55
2023/10/15 04:59:36;;;;;;;1.17;1.08;;;19.50;54.60;;;;;;5056618;28;20191;-55
2023/10/15 05:02:04;;;;;;;1.05;1.00;;;19.50;54.60;;;;;;5038690;28;20624;-55
2023/10/15 05:04:32;;;;;;;1.48;0.93;;;19.50;54.60;;;;;;5056595;28;20194;-55
2023/10/15 05:06:59;;;;;;;1.10;1.02;;;19.60;54.70;;;;;;5057214;28;20212;-55
2023/10/15 05:09:31;;;;;;;1.60;1.10;;;19.50;54.60;;;;;;5056482;28;20187;-55
2023/10/15 05:11:59;;;;;;;1.20;1.10;;;19.50;54.80;;;;;;5056198;28;20180;-55
2023/10/15 05:14:25;;;;;;;2.67;1.23;;;19.50;54.60;;;;;;5056025;28;20192;-55
2023/10/15 05:16:53;;;;;;;3.33;1.35;;;19.50;55.00;;;;;;5055996;28;20203;-56
2023/10/15 05:19:21;;;;;;;1.10;1.00;;;19.50;54.80;;;;;;5055954;28;20188;-55
2023/10/15 05:21:49;;;;;;;1.08;0.98;;;19.60;54.80;;;;;;5038294;28;20199;-55
2023/10/15 05:24:18;;;;;;;1.85;1.20;;;19.50;54.80;;;;;;5037976;28;20584;-55
2023/10/15 05:26:47;;;;;;;1.10;1.00;;;19.50;54.60;;;;;;5055888;28;20210;-55
2023/10/15 05:29:15;;;;;;;0.93;0.93;;;19.50;54.90;;;;;;5055450;28;20195;-55
2023/10/15 05:31:42;;;;;;;1.65;1.20;;;19.50;54.60;;;;;;5055815;28;20196;-55
2023/10/15 05:34:09;;;;;;;2.40;1.30;;;19.50;54.80;;;;;;5055718;28;20729;-55
2023/10/15 05:36:38;;;;;;;1.70;1.30;;;19.50;54.50;;;;;;5037651;28;20273;-55
2023/10/15 05:39:08;;;;;;;1.45;1.20;;;19.50;54.50;;;;;;5055623;28;20194;-55
2023/10/15 05:41:34;;;;;;;1.67;1.15;;;19.50;54.70;;;;;;5037735;28;20207;-55
2023/10/15 05:44:01;;;;;;;1.15;1.05;;;19.50;54.80;;;;;;5055725;28;20194;-55
2023/10/15 05:46:29;;;;;;;1.58;1.20;;;19.50;55.00;;;;;;5063654;22;20265;-52
2023/10/15 05:48:59;;;;;;;1.20;1.10;;;19.50;54.60;;;;;;5037870;28;20222;-51
2023/10/15 05:51:26;;;;;;;3.28;1.00;;;19.50;54.80;;;;;;5037795;28;20199;-51
2023/10/15 05:53:55;;;;;;;1.33;1.13;;;19.50;54.60;;;;;;5037709;28;20199;-51
2023/10/15 05:56:22;;;;;;;1.30;0.90;;;19.50;54.60;;;;;;5037783;28;20211;-51
2023/10/15 05:58:50;;;;;;;1.90;1.13;;;19.50;54.60;;;;;;5037616;28;20215;-51
2023/10/15 06:01:17;;;;;;;1.58;1.10;;;19.50;54.60;;;;;;5055577;28;20195;-51
2023/10/15 06:03:46;;;;;;;1.65;1.10;;;19.50;54.40;;;;;;5055416;28;20187;-52
2023/10/15 06:06:13;;;;;;;0.95;0.95;;;19.50;54.60;;;;;;5055410;28;20191;-51
2023/10/15 06:08:40;;;;;;;1.05;0.85;;;19.50;54.60;;;;;;5055606;28;20212;-51
2023/10/15 06:11:08;;;;;;;1.40;1.20;;;19.50;54.70;;;;;;5037497;28;20204;-52
2023/10/15 06:13:36;;;;;;;1.13;1.02;;;19.50;55.00;;;;;;5055272;28;20188;-51
2023/10/15 06:16:04;;;;;;;1.23;1.10;;;19.50;54.80;;;;;;5037501;28;20196;-51
2023/10/15 06:18:31;;;;;;;1.42;1.08;;;19.50;54.60;;;;;;5063423;23;20263;-79
2023/10/15 06:20:59;;;;;;;1.52;1.08;;;19.50;54.60;;;;;;5036692;28;20243;-79
2023/10/15 06:23:27;;;;;;;1.77;1.02;;;19.50;54.70;;;;;;5019341;28;20223;-80
2023/10/15 06:25:54;;;;;;;2.85;1.27;;;19.50;54.70;;;;;;5020010;28;20207;-79
2023/10/15 06:28:22;;;;;;;2.13;1.05;;;19.60;54.90;;;;;;5035383;28;20196;-79
2023/10/15 06:30:49;;;;;;;2.28;1.15;;;19.60;54.80;;;;;;5035161;28;20281;-79
2023/10/15 06:33:18;;;;;;;1.00;0.98;;;19.60;54.60;;;;;;5019163;28;20203;-80
2023/10/15 06:35:45;;;;;;;2.67;1.20;;;19.60;54.60;;;;;;5018619;28;20258;-80
2023/10/15 06:38:12;;;;;;;1.52;1.20;;;19.50;54.50;;;;;;5018884;28;20220;-80
2023/10/15 06:40:39;;;;;;;1.65;1.40;;;19.60;54.60;;;;;;5018539;28;20226;-79
2023/10/15 06:43:06;;;;;;;1.10;1.00;;;19.60;54.80;;;;;;5018715;28;20231;-79
2023/10/15 06:45:35;;;;;;;1.05;0.90;;;19.60;54.50;;;;;;5034554;28;20232;-79
2023/10/15 06:48:02;;;;;;;1.02;0.90;;;19.60;54.80;;;;;;5035011;28;20200;-79
2023/10/15 06:50:30;;;;;;;1.45;1.10;;;19.60;54.70;;;;;;5017916;28;20234;-79
2023/10/15 06:53:01;;;;;;;1.15;1.05;;;19.60;54.60;;;;;;5018840;28;20192;-79
2023/10/15 06:55:31;;;;;;;2.78;1.20;;;19.60;54.50;;;;;;5019892;28;20196;-80
2023/10/15 06:57:58;;;;;;;2.60;1.30;;;19.60;54.60;;;;;;5019084;28;20312;-80
2023/10/15 07:00:25;;;;;;;1.75;1.20;;;19.70;54.70;;;;;;5019288;28;20223;-81
2023/10/15 07:02:54;;;;;;;1.02;0.90;;;19.70;54.60;;;;;;5019299;28;20200;-80
2023/10/15 07:05:23;;;;;;;1.35;1.17;;;19.70;54.40;;;;;;5018130;28;20207;-80
2023/10/15 07:07:50;;;;;;;1.45;1.33;;;19.70;54.60;;;;;;5035483;28;20200;-80
2023/10/15 07:10:17;;;;;;;0.98;0.95;;;19.70;54.60;;;;;;5003518;28;20231;-80
2023/10/15 07:12:45;;;;;;;1.10;1.00;;;19.80;54.60;;;;;;5003256;28;20232;-80
2023/10/15 07:15:14;;;;;;;2.13;1.20;;;19.80;54.40;;;;;;5018539;28;20291;-80
2023/10/15 07:17:42;;;;;;;1.10;1.00;;;19.80;54.40;;;;;;5034703;28;20235;-80
2023/10/15 07:20:15;;;;;;;1.65;1.02;;;19.80;54.40;;;;;;5034636;28;20314;-80
2023/10/15 07:22:43;;;;;;;1.90;1.00;;;19.80;54.40;;;;;;5018549;28;20643;-80
2023/10/15 07:25:10;;;;;;;1.92;1.10;;;19.90;54.40;;;;;;5035021;28;20195;-80
2023/10/15 07:27:41;;;;;;;1.13;0.98;;;19.90;54.30;;;;;;5035117;28;20291;-80
2023/10/15 07:30:12;;;;;;;1.48;1.10;;;19.90;54.40;;;;;;5002479;28;20261;-80
2023/10/15 07:32:39;;;;;;;1.27;1.00;;;19.90;54.40;;;;;;5017742;28;20228;-80
2023/10/15 07:35:07;;;;;;;1.23;1.13;;;20.00;54.20;;;;;;5018469;28;20218;-80
2023/10/15 07:37:36;;;;;;;1.60;1.15;;;20.00;54.00;;;;;;5035021;28;20215;-80
2023/10/15 07:40:05;;;;;;;1.17;0.95;;;20.10;54.20;;;;;;5017467;28;20220;-80
2023/10/15 07:42:33;;;;;;;1.17;1.08;;;20.10;54.00;;;;;;5017368;28;20192;-80
2023/10/15 07:45:00;;;;;;;1.90;1.20;;;20.10;54.00;;;;;;5033961;28;20654;-80
2023/10/15 07:47:27;;;;;;;1.52;1.23;;;20.10;53.90;;;;;;5017428;28;20675;-80
2023/10/15 07:49:54;;;;;;;1.45;1.10;;;20.20;54.10;;;;;;5033834;28;20230;-80
2023/10/15 07:52:21;;;;;;;1.27;1.00;;;20.30;54.20;;;;;;5017126;28;20192;-80
2023/10/15 07:54:50;;;;;;;1.33;1.23;;;20.30;54.80;;;;;;5033796;28;20196;-80
2023/10/15 07:57:17;;;;;;;1.38;1.15;;;20.40;53.90;;;;;;5016935;28;20212;-80
2023/10/15 07:59:44;;;;;;;2.35;1.20;;;20.60;53.90;;;;;;5017038;28;20223;-80
2023/10/15 08:02:12;;;;;;;1.00;0.90;;;20.80;53.60;;;;;;5016956;28;20635;-80
2023/10/15 08:04:39;;;;;;;1.10;0.95;;;21.00;53.10;;;;;;5033165;28;20612;-80
2023/10/15 08:07:08;;;;;;;1.58;1.20;;;21.20;52.60;;;;;;5033102;28;20199;-80
2023/10/15 08:09:36;;;;;;;1.50;0.93;;;21.40;52.30;;;;;;5020102;28;20714;-80
2023/10/15 08:12:06;;;;;;;1.38;1.00;;;21.50;51.90;;;;;;5035517;28;20211;-80
2023/10/15 08:14:33;;;;;;;1.48;1.05;;;21.70;51.60;;;;;;5018963;28;20215;-79
2023/10/15 08:17:00;;;;;;;1.02;0.98;;;21.70;51.30;;;;;;5036120;28;20223;-82
2023/10/15 08:19:27;;;;;;;1.48;1.10;;;21.80;51.30;;;;;;5020293;28;20250;-82
2023/10/15 08:21:54;;;;;;;2.00;1.05;;;21.80;51.00;;;;;;5036839;28;20250;-82
2023/10/15 08:24:21;;;;;;;1.77;1.02;;;21.80;50.90;;;;;;5037726;28;20206;-82
2023/10/15 08:26:48;;;;;;;1.65;1.15;;;21.80;50.60;;;;;;5030149;28;20211;-82
2023/10/15 08:29:19;;;;;;;1.45;0.98;;;21.80;50.40;;;;;;5055355;28;20271;-82
2023/10/15 08:31:47;;;;;;;2.38;1.38;;;21.80;50.40;;;;;;5038687;28;20196;-82
2023/10/15 08:34:13;;;;;;;2.88;1.20;;;21.80;50.70;;;;;;5009392;28;20200;-82
2023/10/15 08:36:40;;;;;;;1.55;1.00;;;21.70;50.60;;;;;;5022022;28;20204;-81
2023/10/15 08:39:07;;;;;;;2.85;1.38;;;21.80;51.00;;;;;;5037433;28;20592;-81
2023/10/15 08:41:37;;;;;;;2.13;1.15;;;21.80;51.00;;;;;;5037897;28;20200;-81
2023/10/15 08:44:05;;;;;;;2.40;1.15;;;21.90;50.90;;;;;;5021241;28;20192;-82
2023/10/15 08:46:33;;;;;;;1.33;1.05;;;21.90;50.70;;;;;;5001467;28;20196;-82
2023/10/15 08:49:01;;;;;;;1.45;0.90;;;21.90;50.50;;;;;;5017514;28;20574;-82
2023/10/15 08:51:28;;;;;;;1.65;1.13;;;21.90;50.20;;;;;;5017309;28;20200;-82
2023/10/15 08:53:57;;;;;;;1.58;1.05;;;21.80;50.30;;;;;;5000873;28;20647;-82
2023/10/15 08:56:25;;;;;;;1.60;1.17;;;21.80;50.10;;;;;;5018605;28;20203;-82
2023/10/15 08:58:54;;;;;;;1.80;1.10;;;21.70;49.90;;;;;;5034538;28;20266;-82
2023/10/15 09:01:21;;;;;;;1.80;1.20;;;21.70;50.10;;;;;;5034366;28;20254;-81
2023/10/15 09:03:52;;;;;;;2.13;1.20;;;21.70;50.30;;;;;;5020445;28;20196;-82
2023/10/15 09:06:19;;;;;;;2.35;1.10;;;21.70;50.50;;;;;;5037678;28;20196;-82
2023/10/15 09:08:46;;;;;;;1.60;1.00;;;21.70;50.40;;;;;;5021037;28;20200;-82
2023/10/15 09:11:13;;;;;;;2.58;1.00;;;21.80;50.90;;;;;;5019805;28;20224;-82
2023/10/15 09:13:40;;;;;;;1.92;0.95;;;22.00;50.90;;;;;;5019622;28;20282;-82
2023/10/15 09:16:08;;;;;;;3.03;1.13;;;22.10;50.40;;;;;;5035721;28;20651;-82
2023/10/15 09:18:36;;;;;;;1.73;0.98;;;22.30;50.20;;;;;;5020213;28;20223;-82
2023/10/15 09:21:05;;;;;;;1.83;1.05;;;22.40;49.90;;;;;;5037307;28;20223;-82
2023/10/15 09:23:35;;;;;;;2.90;1.40;;;22.50;49.50;;;;;;5020829;28;20196;-82
2023/10/15 09:26:02;;;;;;;1.10;1.00;;;22.50;49.10;;;;;;5003768;28;20287;-82
2023/10/15 09:28:29;;;;;;;1.83;1.02;;;22.50;49.10;;;;;;5035901;28;20572;-82
2023/10/15 09:31:02;;;;;;;1.33;0.93;;;22.50;49.20;;;;;;5036201;28;20216;-82
2023/10/15 09:33:30;;;;;;;1.40;0.98;;;22.50;49.40;;;;;;5020119;28;20220;-82
2023/10/15 09:35:57;;;;;;;0.82;0.73;;;22.50;49.50;;;;;;5020371;28;20203;-82
2023/10/15 09:38:28;;;;;;;1.83;1.00;;;22.40;49.20;;;;;;5037265;28;20705;-82
2023/10/15 09:40:56;;;;;;;1.52;1.00;;;22.40;49.10;;;;;;5020617;28;20255;-82
2023/10/15 09:43:24;;;;;;;1.88;0.90;;;22.40;49.30;;;;;;5020740;28;20231;-82
2023/10/15 09:45:54;;;;;;;1.13;0.90;;;22.40;49.40;;;;;;5020797;28;20223;-82
2023/10/15 09:48:23;;;;;;;2.50;0.93;;;22.40;49.30;;;;;;5020853;28;20227;-82
2023/10/15 09:50:51;;;;;;;1.95;1.10;;;22.40;49.30;;;;;;5020730;28;20224;-82
2023/10/15 09:53:20;;;;;;;2.05;1.00;;;22.40;49.50;;;;;;5022715;28;20253;-82
2023/10/15 09:55:49;;;;;;;2.97;1.00;;;22.50;49.50;;;;;;5004406;28;20207;-82
2023/10/15 09:58:17;;;;;;;1.30;0.98;;;22.50;49.50;;;;;;5021758;28;20248;-82
2023/10/15 10:00:59;;;;;;;1.25;1.10;;;22.50;49.50;;;;;;5019595;28;20227;-82
2023/10/15 10:03:49;;;;;;;1.30;0.95;;;22.60;49.50;;;;;;5020151;28;20199;-82
2023/10/15 10:06:22;;;;;;;1.08;0.98;;;22.70;49.20;;;;;;5020173;28;20193;-82
2023/10/15 10:09:01;;;;;;;1.30;0.90;;;22.90;49.00;;;;;;5020941;28;20629;-82
2023/10/15 10:11:39;;;;;;;1.10;0.98;;;22.90;48.70;;;;;;5020426;28;20184;-82
2023/10/15 10:14:32;;;;;;;1.00;0.90;;;23.10;48.50;;;;;;5020684;28;20332;-82
2023/10/15 10:16:59;;;;;;;1.58;0.90;;;23.10;48.30;;;;;;5019670;28;20271;-82
2023/10/15 10:19:27;;;;;;;1.10;0.90;;;23.20;48.30;;;;;;5019618;28;20259;-82
2023/10/15 10:21:55;;;;;;;1.40;1.17;;;23.20;48.10;;;;;;5004278;28;20223;-82
2023/10/15 10:24:23;;;;;;;2.17;1.10;;;23.30;48.00;;;;;;5037661;28;20211;-82
2023/10/15 10:26:55;;;;;;;1.13;1.00;;;23.30;47.90;;;;;;5019226;28;20202;-82
2023/10/15 10:29:25;;;;;;;2.35;1.10;;;23.30;47.90;;;;;;5018953;28;20212;-82
2023/10/15 10:31:54;;;;;;;0.90;0.80;;;23.20;47.90;;;;;;5017886;28;20742;-82
2023/10/15 10:34:29;;;;;;;2.25;0.82;;;23.20;48.10;;;;;;5018279;28;20650;-82
2023/10/15 10:36:56;;;;;;;1.48;1.00;;;23.10;48.20;;;;;;5035561;28;20230;-82
2023/10/15 10:39:25;;;;;;;1.20;0.88;;;23.10;48.30;;;;;;5019342;28;20697;-82
2023/10/15 10:41:58;;;;;;;1.50;0.95;;;23.00;48.20;;;;;;5019576;28;20200;-82
2023/10/15 10:44:38;;;;;;;0.80;0.57;;;22.90;48.30;;;;;;5018884;28;20200;-82
2023/10/15 10:47:18;;;;;;;0.93;0.82;;;22.90;48.30;;;;;;5018406;28;20200;-82
2023/10/15 10:49:52;;;;;;;1.00;0.90;;;23.00;48.30;;;;;;5018304;28;20686;-82
2023/10/15 10:52:23;;;;;;;1.10;0.90;;;23.00;48.20;;;;;;5018453;28;20286;-82
2023/10/15 10:54:50;;;;;;;1.58;0.90;;;23.00;48.20;;;;;;5017888;28;20231;-82
2023/10/15 10:57:20;;;;;;;1.23;0.80;;;23.00;48.20;;;;;;5018202;28;20207;-82
2023/10/15 10:59:48;;;;;;;1.52;1.08;;;23.00;48.10;;;;;;5018020;28;20326;-82
2023/10/15 11:02:15;;;;;;;1.52;0.93;;;23.10;48.20;;;;;;5018878;28;20188;-82
2023/10/15 11:04:42;;;;;;;1.27;0.88;;;23.10;48.20;;;;;;5018002;28;20254;-82
2023/10/15 11:07:10;;;;;;;0.93;0.93;;;23.00;48.20;;;;;;5034371;28;20210;-82
2023/10/15 11:09:38;;;;;;;1.48;0.80;;;23.10;48.30;;;;;;5034614;28;20315;-82
2023/10/15 11:12:07;;;;;;;1.00;0.88;;;23.00;48.20;;;;;;5017738;28;20231;-82
2023/10/15 11:14:36;;;;;;;1.17;0.73;;;22.90;48.10;;;;;;5034355;28;20200;-82
2023/10/15 11:17:04;;;;;;;1.55;1.00;;;22.90;48.20;;;;;;5033797;28;20200;-82
2023/10/15 11:19:32;;;;;;;1.40;1.00;;;22.90;48.30;;;;;;5033609;28;20223;-82
2023/10/15 11:21:59;;;;;;;1.27;0.90;;;22.80;48.40;;;;;;5017431;28;20651;-82
2023/10/15 11:24:26;;;;;;;1.13;0.73;;;22.80;48.50;;;;;;5034022;28;20204;-82
2023/10/15 11:26:54;;;;;;;0.82;0.82;;;22.80;48.60;;;;;;5034512;28;20196;-82
2023/10/15 11:29:22;;;;;;;1.00;0.90;;;22.70;48.60;;;;;;5017445;28;20212;-82
2023/10/15 11:31:53;;;;;;;1.20;1.10;;;22.70;48.70;;;;;;5017523;28;20254;-81
2023/10/15 11:34:21;;;;;;;1.15;0.90;;;22.70;48.70;;;;;;5016690;28;20188;-81
2023/10/15 11:36:49;;;;;;;1.55;1.23;;;22.70;48.70;;;;;;5016502;28;20236;-81
2023/10/15 11:39:19;;;;;;;1.20;1.10;;;22.60;48.70;;;;;;5016545;28;20737;-81
2023/10/15 11:41:52;;;;;;;1.10;1.00;;;22.60;48.70;;;;;;5016899;28;20738;-81
2023/10/15 11:44:25;;;;;;;1.05;0.80;;;22.60;48.60;;;;;;5016666;28;20195;-81
2023/10/15 11:46:55;;;;;;;1.17;0.85;;;22.60;48.60;;;;;;5018442;28;20200;-81
2023/10/15 11:49:23;;;;;;;1.58;0.95;;;22.50;48.70;;;;;;5035321;28;20220;-81
2023/10/15 11:51:50;;;;;;;2.15;1.17;;;22.50;48.80;;;;;;5035685;28;20287;-81
2023/10/15 11:54:19;;;;;;;1.35;0.88;;;22.50;48.90;;;;;;5018624;28;20200;-81
2023/10/15 11:56:50;;;;;;;1.25;0.95;;;22.50;48.90;;;;;;5018711;28;20200;-82
2023/10/15 11:59:17;;;;;;;1.92;0.90;;;22.50;48.70;;;;;;5018219;28;20230;-82
2023/10/15 12:01:50;;;;;;;3.03;0.82;;;22.50;48.50;;;;;;5018605;28;20202;-82
2023/10/15 12:04:19;;;;;;;2.03;0.93;;;22.60;48.30;;;;;;5019260;28;20216;-82
2023/10/15 12:06:46;;;;;;;1.48;0.93;;;22.60;48.50;;;;;;5035603;28;20215;-82
2023/10/15 12:09:16;;;;;;;3.70;1.27;;;22.70;48.50;;;;;;5018863;28;20211;-82
2023/10/15 12:11:44;;;;;;;1.67;1.17;;;22.70;48.50;;;;;;5019431;28;20207;-82
2023/10/15 12:14:12;;;;;;;1.48;0.95;;;22.80;48.50;;;;;;5020119;28;20235;-82
2023/10/15 12:16:40;;;;;;;1.58;0.80;;;22.70;48.60;;;;;;5037115;28;20203;-81
2023/10/15 12:19:08;;;;;;;0.73;0.73;;;22.80;48.30;;;;;;5018719;28;20223;-81
2023/10/15 12:21:37;;;;;;;1.35;1.00;;;22.80;48.10;;;;;;5016901;28;20593;-81
2023/10/15 12:24:05;;;;;;;1.50;1.00;;;22.70;48.00;;;;;;5017298;28;20651;-81
2023/10/15 12:26:32;;;;;;;1.83;1.00;;;22.70;48.10;;;;;;5017622;28;20199;-81
2023/10/15 12:28:59;;;;;;;2.35;1.30;;;22.60;48.20;;;;;;5017138;28;20196;-81
2023/10/15 12:31:27;;;;;;;1.83;0.80;;;22.60;48.40;;;;;;5017861;28;20204;-80
2023/10/15 12:33:55;;;;;;;1.50;1.02;;;22.60;48.70;;;;;;5017714;28;20199;-82
2023/10/15 12:36:22;;;;;;;1.10;0.77;;;22.60;47.80;;;;;;5017780;28;20215;-81
2023/10/15 12:38:50;;;;;;;1.00;0.80;;;22.70;47.90;;;;;;5021140;28;20216;-80
2023/10/15 12:41:21;;;;;;;1.20;0.80;;;22.70;47.40;;;;;;5022521;28;20252;-81
2023/10/15 12:43:49;;;;;;;1.05;0.95;;;22.70;47.70;;;;;;5023150;28;20239;-81
2023/10/15 12:46:17;;;;;;;1.20;1.00;;;22.70;47.40;;;;;;5038127;28;20543;-80
2023/10/15 12:48:44;;;;;;;1.65;1.20;;;22.80;47.60;;;;;;5022902;28;20215;-82
2023/10/15 12:51:11;;;;;;;1.70;1.20;;;22.70;47.00;;;;;;5006653;28;20224;-82
2023/10/15 12:53:38;;;;;;;1.83;0.88;;;22.70;47.70;;;;;;5023139;28;20208;-82
2023/10/15 12:56:07;;;;;;;1.27;1.10;;;22.70;47.40;;;;;;5021601;28;20196;-81
2023/10/15 12:58:34;;;;;;;2.40;1.30;;;22.70;47.10;;;;;;5021797;28;20223;-81
2023/10/15 13:01:01;;;;;;;2.08;1.30;;;22.70;47.10;;;;;;5037772;28;20224;-81
2023/10/15 13:03:28;;;;;;;1.52;1.00;;;22.70;47.40;;;;;;5037856;28;20196;-81